Time;durP1;ratioP1;P1;durP2;ratioP2;P2;SDS_P1;SDS_P2;PMS_P1;PMS_P2;Temp;Humidity;BMP_temperature;BMP_pressure;BME280_temperature;BME280_humidity;BME280_pressure;Samples;Min_cycle;Max_cycle;Signal;HPM_P1;HPM_P2
2021/03/08 00:01:28;;;;;;;24.95;7.87;;;;;;;0.20;69.84;98805.09;2178548;81;21297;-67
2021/03/08 00:04:31;;;;;;;22.45;6.92;;;;;;;0.21;70.13;98812.41;2178485;81;21304;-68
2021/03/08 00:07:33;;;;;;;20.68;6.55;;;;;;;0.20;70.38;98810.70;2178533;81;21261;-68
2021/03/08 00:10:35;;;;;;;27.30;7.92;;;;;;;0.14;70.24;98815.11;2178828;81;21285;-66
2021/03/08 00:13:37;;;;;;;21.27;6.87;;;;;;;0.13;70.70;98813.81;2178475;81;21713;-67
2021/03/08 00:16:39;;;;;;;21.70;6.33;;;;;;;0.11;71.20;98821.59;2178725;81;21301;-67
2021/03/08 00:19:41;;;;;;;20.52;5.67;;;;;;;0.09;71.49;98825.94;2178538;81;21241;-67
2021/03/08 00:22:43;;;;;;;21.57;6.35;;;;;;;0.03;71.83;98820.03;2178458;81;21276;-66
2021/03/08 00:25:45;;;;;;;22.73;6.55;;;;;;;-0.03;72.44;98821.86;2178449;81;21299;-67
2021/03/08 00:28:47;;;;;;;24.27;6.80;;;;;;;-0.06;73.09;98821.05;2178659;81;21309;-68
2021/03/08 00:31:49;;;;;;;24.50;6.03;;;;;;;-0.08;72.98;98823.66;2178571;81;21300;-67
2021/03/08 00:34:52;;;;;;;22.93;7.03;;;;;;;-0.12;73.47;98818.59;2178663;82;21602;-68
2021/03/08 00:37:54;;;;;;;23.90;6.33;;;;;;;-0.17;73.76;98813.52;2178706;82;21767;-66
2021/03/08 00:40:56;;;;;;;20.65;6.42;;;;;;;-0.22;74.42;98820.03;2178667;81;21589;-67
2021/03/08 00:43:58;;;;;;;23.92;7.75;;;;;;;-0.25;74.30;98820.08;2178656;81;21308;-69
2021/03/08 00:47:00;;;;;;;23.42;7.62;;;;;;;-0.26;74.02;98815.83;2178631;81;21288;-67
2021/03/08 00:50:02;;;;;;;20.97;6.70;;;;;;;-0.26;74.50;98810.67;2178672;82;21281;-67
2021/03/08 00:53:05;;;;;;;23.92;7.30;;;;;;;-0.27;74.91;98811.98;2178986;82;21578;-67
2021/03/08 00:56:07;;;;;;;23.30;7.17;;;;;;;-0.28;74.46;98803.84;2178595;81;21123;-69
2021/03/08 00:59:09;;;;;;;23.35;7.95;;;;;;;-0.28;74.57;98808.54;2178989;81;21178;-67
2021/03/08 01:02:11;;;;;;;23.55;7.08;;;;;;;-0.28;74.82;98798.68;2178711;81;21282;-67
2021/03/08 01:05:14;;;;;;;25.43;7.67;;;;;;;-0.28;74.74;98803.38;2178613;81;21288;-67
2021/03/08 01:08:17;;;;;;;23.10;8.48;;;;;;;-0.28;74.79;98802.09;2178521;81;21316;-68
2021/03/08 01:11:19;;;;;;;25.10;7.92;;;;;;;-0.26;74.90;98801.66;2178656;81;21308;-69
2021/03/08 01:14:21;;;;;;;22.13;8.00;;;;;;;-0.25;74.72;98797.33;2178630;81;21293;-67
2021/03/08 01:17:23;;;;;;;25.40;7.83;;;;;;;-0.23;74.74;98796.85;2178573;81;21301;-66
2021/03/08 01:20:25;;;;;;;27.17;8.40;;;;;;;-0.24;75.16;98799.88;2150977;82;21277;-66
2021/03/08 01:23:27;;;;;;;24.15;8.43;;;;;;;-0.22;75.04;98799.85;2178616;81;21265;-66
2021/03/08 01:26:29;;;;;;;26.60;7.85;;;;;;;-0.25;74.94;98789.59;2178589;81;21309;-66
2021/03/08 01:29:31;;;;;;;25.55;8.15;;;;;;;-0.24;75.47;98791.31;2178660;81;21265;-66
2021/03/08 01:32:33;;;;;;;24.12;8.83;;;;;;;-0.25;75.77;98797.33;2178751;81;21709;-67
2021/03/08 01:35:35;;;;;;;27.90;8.63;;;;;;;-0.29;75.91;98789.23;2178526;82;21736;-71
2021/03/08 01:38:38;;;;;;;23.60;8.20;;;;;;;-0.33;76.75;98787.59;2178553;81;21911;-71
2021/03/08 01:41:40;;;;;;;23.77;8.45;;;;;;;-0.39;77.18;98782.97;2178577;82;21301;-67
2021/03/08 01:44:42;;;;;;;23.83;8.28;;;;;;;-0.41;77.87;98787.28;2178589;81;21300;-68
2021/03/08 01:47:44;;;;;;;22.70;7.80;;;;;;;-0.45;78.21;98791.23;2178598;81;21626;-68
2021/03/08 01:50:46;;;;;;;26.23;8.73;;;;;;;-0.50;78.75;98788.73;2178610;81;21289;-68
2021/03/08 01:53:49;;;;;;;26.02;8.25;;;;;;;-0.55;79.42;98782.37;2178591;81;21752;-68
2021/03/08 01:56:51;;;;;;;26.17;8.80;;;;;;;-0.57;78.93;98787.98;2178483;81;21328;-66
2021/03/08 01:59:53;;;;;;;25.20;8.85;;;;;;;-0.58;79.02;98778.54;2178826;81;21169;-67
2021/03/08 02:02:55;;;;;;;24.10;8.88;;;;;;;-0.56;79.53;98778.51;2178591;81;21745;-68
2021/03/08 02:05:57;;;;;;;24.50;8.23;;;;;;;-0.55;79.66;98772.48;2178922;81;21158;-68
2021/03/08 02:08:59;;;;;;;24.23;8.28;;;;;;;-0.58;79.67;98775.96;2178552;81;21280;-67
2021/03/08 02:12:01;;;;;;;24.47;7.95;;;;;;;-0.60;79.26;98771.28;2178582;81;21273;-66
2021/03/08 02:15:03;;;;;;;23.32;7.30;;;;;;;-0.63;79.58;98768.77;2178547;81;21142;-67
2021/03/08 02:18:07;;;;;;;24.02;8.05;;;;;;;-0.64;80.16;98770.08;2178947;81;21130;-67
2021/03/08 02:21:09;;;;;;;24.63;8.10;;;;;;;-0.68;80.49;98769.27;2178438;81;21323;-68
2021/03/08 02:24:11;;;;;;;23.00;8.05;;;;;;;-0.71;80.79;98771.90;2178532;81;21293;-68
2021/03/08 02:27:13;;;;;;;25.72;9.70;;;;;;;-0.73;80.80;98765.93;2178633;81;21705;-67
2021/03/08 02:30:15;;;;;;;27.20;10.13;;;;;;;-0.74;80.83;98769.38;2177303;81;21280;-66
2021/03/08 02:33:17;;;;;;;29.02;9.58;;;;;;;-0.73;80.70;98768.06;2161132;82;21152;-66
2021/03/08 02:36:19;;;;;;;28.17;9.73;;;;;;;-0.68;80.27;98775.70;2140048;82;21713;-67
2021/03/08 02:39:21;;;;;;;30.27;10.58;;;;;;;-0.68;80.92;98775.70;2161095;81;21166;-66
2021/03/08 02:42:23;;;;;;;27.73;10.65;;;;;;;-0.70;81.56;98780.88;2161089;82;21151;-66
2021/03/08 02:45:25;;;;;;;27.98;9.75;;;;;;;-0.70;81.26;98778.31;2161064;82;21143;-68
2021/03/08 02:48:27;;;;;;;24.98;8.95;;;;;;;-0.69;81.81;98773.99;2161150;82;21155;-66
2021/03/08 02:51:29;;;;;;;26.27;9.90;;;;;;;-0.72;81.72;98767.19;2161040;82;21135;-66
2021/03/08 02:54:31;;;;;;;23.57;9.15;;;;;;;-0.76;81.73;98770.69;2161084;82;21140;-68
2021/03/08 02:57:33;;;;;;;25.12;9.43;;;;;;;-0.77;82.35;98777.16;2161044;82;21148;-66
2021/03/08 03:00:35;;;;;;;25.60;9.58;;;;;;;-0.78;83.29;98780.59;2161211;82;21734;-67
2021/03/08 03:03:37;;;;;;;25.75;9.08;;;;;;;-0.80;83.76;98785.77;2161101;82;21135;-67
2021/03/08 03:06:39;;;;;;;26.17;10.10;;;;;;;-0.79;83.17;98784.03;2161164;82;21714;-67
2021/03/08 03:09:41;;;;;;;24.50;10.35;;;;;;;-0.81;83.39;98784.06;2161068;82;21119;-66
2021/03/08 03:12:43;;;;;;;25.25;9.23;;;;;;;-0.82;83.50;98785.38;2161439;82;21290;-68
2021/03/08 03:15:45;;;;;;;26.45;9.63;;;;;;;-0.81;83.92;98790.95;2161124;82;21309;-67
2021/03/08 03:18:47;;;;;;;25.32;9.48;;;;;;;-0.82;83.82;98790.11;2161312;81;21278;-67
2021/03/08 03:21:50;;;;;;;25.90;9.98;;;;;;;-0.84;83.71;98790.55;2161192;82;21726;-71
2021/03/08 03:24:52;;;;;;;23.57;8.80;;;;;;;-0.90;84.85;98799.67;2161066;82;21167;-66
2021/03/08 03:27:54;;;;;;;25.30;9.88;;;;;;;-0.92;84.43;98791.97;2161219;82;21716;-68
2021/03/08 03:30:57;;;;;;;24.72;9.85;;;;;;;-0.94;84.69;98805.73;2160912;82;21151;-67
2021/03/08 03:33:59;;;;;;;25.15;9.43;;;;;;;-0.97;84.40;98800.63;2161106;81;21144;-67
2021/03/08 03:37:01;;;;;;;26.62;9.50;;;;;;;-1.01;83.89;98800.27;2161149;82;21763;-67
2021/03/08 03:40:03;;;;;;;24.85;8.85;;;;;;;-1.02;83.75;98800.71;2161438;82;21273;-66
2021/03/08 03:43:05;;;;;;;27.60;8.90;;;;;;;-1.03;84.05;98799.41;2161047;82;21595;-67
2021/03/08 03:46:07;;;;;;;28.20;9.98;;;;;;;-1.05;83.72;98808.45;2161047;82;21139;-67
2021/03/08 03:49:09;;;;;;;28.12;9.43;;;;;;;-1.03;83.92;98811.00;2161283;82;21281;-67
2021/03/08 03:52:12;;;;;;;24.92;9.35;;;;;;;-1.03;83.34;98808.42;2161180;82;21286;-66
2021/03/08 03:55:14;;;;;;;25.05;8.85;;;;;;;-1.02;83.06;98806.27;2161160;82;21293;-67
2021/03/08 03:58:16;;;;;;;26.52;10.38;;;;;;;-1.01;83.88;98807.53;2161089;82;21167;-67
2021/03/08 04:01:18;;;;;;;27.98;9.75;;;;;;;-1.02;84.23;98811.42;2161422;82;21722;-69
2021/03/08 04:04:20;;;;;;;28.55;9.78;;;;;;;-1.03;84.26;98813.16;2161031;82;21151;-66
2021/03/08 04:07:22;;;;;;;23.38;8.40;;;;;;;-1.02;83.43;98817.86;2161057;82;21099;-66
2021/03/08 04:10:25;;;;;;;26.48;10.43;;;;;;;-1.02;84.08;98820.02;2161051;82;21135;-66
2021/03/08 04:13:27;;;;;;;24.92;8.50;;;;;;;-1.01;84.16;98824.72;2161052;82;21617;-66
2021/03/08 04:16:29;;;;;;;27.70;8.38;;;;;;;-1.02;83.79;98823.02;2160978;82;21325;-66
2021/03/08 04:19:31;;;;;;;25.68;8.50;;;;;;;-1.03;83.53;98821.30;2140018;82;21269;-66
2021/03/08 04:22:33;;;;;;;23.92;8.75;;;;;;;-1.04;83.38;98819.17;2161291;82;21297;-66
2021/03/08 04:25:35;;;;;;;24.63;8.28;;;;;;;-1.05;83.30;98824.77;2161373;82;21274;-66
2021/03/08 04:28:37;;;;;;;24.20;8.45;;;;;;;-1.03;83.42;98832.88;2161081;82;21714;-66
2021/03/08 04:31:40;;;;;;;24.07;8.25;;;;;;;-1.03;83.02;98835.46;2160984;82;21159;-66
2021/03/08 04:34:42;;;;;;;25.17;8.30;;;;;;;-1.01;83.47;98842.75;2161132;82;21128;-66
2021/03/08 04:37:44;;;;;;;26.40;9.30;;;;;;;-1.04;82.55;98838.48;2161035;82;21158;-66
2021/03/08 04:40:46;;;;;;;22.93;8.68;;;;;;;-0.98;82.50;98842.70;2161055;82;21127;-66
2021/03/08 04:43:48;;;;;;;24.40;8.88;;;;;;;-0.93;82.36;98837.06;2161001;82;21179;-66
2021/03/08 04:46:51;;;;;;;25.40;9.35;;;;;;;-0.90;81.96;98838.30;2160879;82;21709;-66
2021/03/08 04:49:53;;;;;;;26.80;9.68;;;;;;;-0.83;82.20;98841.20;2139885;82;21269;-67
2021/03/08 04:52:56;;;;;;;26.17;9.48;;;;;;;-0.80;82.13;98842.89;2139803;82;21273;-67
2021/03/08 04:55:58;;;;;;;28.05;9.70;;;;;;;-0.74;81.87;98841.05;2160996;82;21223;-69
2021/03/08 04:59:00;;;;;;;27.95;9.30;;;;;;;-0.75;81.57;98844.52;2161035;82;21147;-67
2021/03/08 05:02:02;;;;;;;26.90;9.25;;;;;;;-0.67;81.51;98841.82;2161042;81;21128;-68
2021/03/08 05:05:04;;;;;;;24.55;8.58;;;;;;;-0.71;81.38;98843.58;2161316;82;21286;-68
2021/03/08 05:08:06;;;;;;;25.65;9.18;;;;;;;-0.84;81.89;98852.81;2160943;82;21602;-68
2021/03/08 05:11:08;;;;;;;26.70;9.68;;;;;;;-0.92;82.39;98864.49;2139985;82;21167;-67
2021/03/08 05:14:10;;;;;;;27.40;10.05;;;;;;;-0.97;82.58;98872.73;2161150;82;21587;-70
2021/03/08 05:17:13;;;;;;;27.17;9.88;;;;;;;-1.04;82.84;98868.09;2161202;82;21285;-69
2021/03/08 05:20:15;;;;;;;26.20;10.15;;;;;;;-1.12;83.11;98872.06;2161226;82;21290;-71
2021/03/08 05:23:17;;;;;;;;;;;;;;;-1.15;82.83;98872.11;2163672;82;21598;-71
2021/03/08 05:26:19;;;;;;;27.60;10.63;;;;;;;-1.12;82.84;98876.34;2161283;82;20226;-68
2021/03/08 05:29:21;;;;;;;28.87;10.65;;;;;;;-1.14;83.38;98871.22;2161427;82;21292;-66
2021/03/08 05:32:23;;;;;;;28.70;10.80;;;;;;;-1.15;83.17;98878.96;2161423;82;21151;-66
2021/03/08 05:35:25;;;;;;;30.50;10.98;;;;;;;-1.17;83.84;98876.41;2140190;82;21282;-66
2021/03/08 05:38:27;;;;;;;29.87;11.83;;;;;;;-1.15;83.45;98877.67;2161199;82;21281;-66
2021/03/08 05:41:29;;;;;;;30.55;12.55;;;;;;;-1.16;83.93;98883.27;2161433;82;21305;-67
2021/03/08 05:44:31;;;;;;;32.38;12.60;;;;;;;-1.12;83.33;98887.52;2161115;82;21646;-66
2021/03/08 05:47:33;;;;;;;32.75;12.68;;;;;;;-1.09;83.53;98891.33;2161616;82;21286;-70
2021/03/08 05:50:35;;;;;;;32.30;11.97;;;;;;;-1.05;83.25;98893.00;2161273;82;21729;-67
2021/03/08 05:53:37;;;;;;;32.55;12.93;;;;;;;-1.04;83.58;98896.41;2161193;82;21147;-68
2021/03/08 05:56:40;;;;;;;32.25;12.93;;;;;;;-1.07;84.01;98896.45;2161133;82;21140;-67
2021/03/08 05:59:42;;;;;;;31.48;12.65;;;;;;;-1.06;83.92;98906.73;2161071;82;21591;-67
2021/03/08 06:02:44;;;;;;;33.53;12.40;;;;;;;-1.03;83.47;98911.00;2161151;82;21167;-66
2021/03/08 06:05:46;;;;;;;33.53;13.43;;;;;;;-0.98;84.20;98910.48;2161404;82;21273;-68
2021/03/08 06:08:48;;;;;;;32.13;13.58;;;;;;;-0.92;83.64;98910.43;2161170;82;21155;-68
2021/03/08 06:11:51;;;;;;;34.78;14.20;;;;;;;-0.86;83.51;98917.22;2161173;82;21289;-66
2021/03/08 06:14:53;;;;;;;36.60;13.78;;;;;;;-0.83;83.70;98922.33;2161139;82;21277;-67
2021/03/08 06:17:55;;;;;;;32.70;13.75;;;;;;;-0.79;83.39;98925.28;2161136;82;21155;-67
2021/03/08 06:20:57;;;;;;;32.60;12.80;;;;;;;-0.68;83.00;98931.56;2161916;82;21673;-66
2021/03/08 06:23:59;;;;;;;34.20;13.78;;;;;;;-0.57;82.83;98943.86;2161103;82;21155;-66
2021/03/08 06:27:01;;;;;;;32.90;15.15;;;;;;;-0.50;82.63;98947.63;2161169;82;21747;-67
2021/03/08 06:30:03;;;;;;;33.70;13.72;;;;;;;-0.40;82.36;98953.94;2161057;82;21309;-70
2021/03/08 06:33:05;;;;;;;35.78;14.15;;;;;;;-0.23;81.96;98957.56;2167041;81;21730;-67
2021/03/08 06:36:07;;;;;;;33.63;14.18;;;;;;;-0.08;81.59;98953.05;2171260;82;21277;-68
2021/03/08 06:39:09;;;;;;;33.92;13.98;;;;;;;0.09;81.23;98960.06;2171269;82;21716;-67
2021/03/08 06:42:11;;;;;;;33.38;14.15;;;;;;;0.19;80.85;98965.06;2171296;82;21285;-67
2021/03/08 06:45:13;;;;;;;36.10;14.68;;;;;;;0.37;80.30;98967.78;2171264;82;21712;-67
2021/03/08 06:48:15;;;;;;;33.75;14.58;;;;;;;0.48;79.66;98970.58;2171301;82;21269;-71
2021/03/08 06:51:17;;;;;;;33.75;13.05;;;;;;;0.53;79.09;98967.91;2141750;82;21261;-68
2021/03/08 06:54:19;;;;;;;33.25;13.32;;;;;;;0.44;78.06;98976.67;2171333;82;21721;-67
2021/03/08 06:57:21;;;;;;;32.45;12.90;;;;;;;0.43;78.12;98983.16;2171312;82;21264;-68
2021/03/08 07:00:24;;;;;;;34.92;13.30;;;;;;;0.60;78.21;98989.31;2171494;82;21283;-67
2021/03/08 07:03:27;;;;;;;29.35;11.93;;;;;;;0.90;76.90;98989.19;2171631;82;21130;-68
2021/03/08 07:06:29;;;;;;;27.65;11.30;;;;;;;1.53;75.36;98993.08;2171116;82;21289;-67
2021/03/08 07:09:31;;;;;;;25.40;10.45;;;;;;;1.96;74.17;98996.45;2171273;82;21296;-67
2021/03/08 07:12:33;;;;;;;26.73;10.23;;;;;;;2.26;71.38;98999.20;2171377;82;21270;-67
2021/03/08 07:15:36;;;;;;;25.12;9.53;;;;;;;2.21;70.84;98998.45;2171433;82;21617;-69
2021/03/08 07:18:38;;;;;;;23.45;8.85;;;;;;;2.04;69.04;99011.36;2171454;82;21304;-69
2021/03/08 07:21:40;;;;;;;25.30;9.60;;;;;;;2.28;69.07;99010.35;2171338;82;21281;-70
2021/03/08 07:24:42;;;;;;;23.75;8.05;;;;;;;2.43;68.45;99019.50;2171140;82;21269;-71
2021/03/08 07:27:44;;;;;;;23.65;8.68;;;;;;;2.32;66.82;99010.69;2171572;82;21269;-67
2021/03/08 07:30:46;;;;;;;22.90;7.62;;;;;;;2.50;67.28;99014.58;2171215;82;21123;-67
2021/03/08 07:33:48;;;;;;;22.95;7.45;;;;;;;2.70;67.58;99014.06;2176668;81;21637;-67
2021/03/08 07:36:50;;;;;;;21.40;6.50;;;;;;;2.65;65.62;99015.07;2178467;81;21269;-67
2021/03/08 07:39:53;;;;;;;21.57;6.65;;;;;;;2.52;65.44;99018.42;2178604;81;21281;-67
2021/03/08 07:42:55;;;;;;;20.77;5.97;;;;;;;2.18;66.58;99020.06;2178715;82;21273;-67
2021/03/08 07:45:57;;;;;;;17.17;4.50;;;;;;;1.89;66.23;99022.05;2178465;81;21150;-67
2021/03/08 07:48:59;;;;;;;15.50;3.90;;;;;;;1.58;64.38;99030.91;2178598;82;21316;-67
2021/03/08 07:52:01;;;;;;;18.27;4.60;;;;;;;1.28;64.17;99025.48;2178672;82;21272;-68
2021/03/08 07:55:03;;;;;;;14.38;4.08;;;;;;;1.17;66.17;99036.89;2178474;81;21720;-67
2021/03/08 07:58:06;;;;;;;12.70;3.70;;;;;;;1.03;65.74;99040.17;2178694;81;21304;-67
2021/03/08 08:01:08;;;;;;;15.58;3.90;;;;;;;0.86;64.84;99070.18;2178446;81;21277;-67
2021/03/08 08:04:10;;;;;;;16.37;4.42;;;;;;;0.90;65.64;99047.75;2178438;81;21130;-68
2021/03/08 08:07:12;;;;;;;14.65;3.40;;;;;;;0.89;64.81;99055.08;2178472;81;21661;-67
2021/03/08 08:10:14;;;;;;;15.25;3.27;;;;;;;0.85;64.51;99049.13;2178948;81;21146;-68
2021/03/08 08:13:16;;;;;;;11.35;3.33;;;;;;;0.77;63.44;99058.28;2178920;81;21135;-68
2021/03/08 08:16:19;;;;;;;13.90;3.35;;;;;;;0.82;62.83;99059.48;2178497;81;21733;-67
2021/03/08 08:19:21;;;;;;;12.85;3.55;;;;;;;0.69;63.27;99066.17;2178732;81;21210;-67
2021/03/08 08:22:23;;;;;;;13.78;3.10;;;;;;;0.64;63.08;99060.22;2178511;81;21122;-69
2021/03/08 08:25:25;;;;;;;9.83;2.67;;;;;;;1.14;62.65;99056.78;2178554;81;21575;-70
2021/03/08 08:28:27;;;;;;;9.00;2.30;;;;;;;1.62;61.08;99065.72;2178496;82;21558;-67
2021/03/08 08:31:29;;;;;;;10.45;2.40;;;;;;;1.95;59.71;99072.34;2178466;81;21277;-68
2021/03/08 08:34:31;;;;;;;9.03;2.42;;;;;;;1.96;55.60;99068.88;2178365;81;21166;-68
2021/03/08 08:37:33;;;;;;;8.73;2.15;;;;;;;2.01;58.76;99069.65;2178433;81;21166;-67
2021/03/08 08:40:36;;;;;;;10.13;2.72;;;;;;;2.23;58.27;99071.75;2178551;81;21178;-69
2021/03/08 08:43:38;;;;;;;9.75;2.33;;;;;;;2.38;56.90;99066.64;2178712;82;21163;-68
2021/03/08 08:46:40;;;;;;;7.65;2.05;;;;;;;1.93;56.00;99045.67;2178396;81;21300;-68
2021/03/08 08:49:47;;;;;;;10.35;2.25;;;;;;;1.99;56.25;99069.27;2178756;81;21146;-67
2021/03/08 08:52:48;;;;;;;11.35;2.33;;;;;;;1.89;55.46;99078.50;2178592;82;21147;-67
2021/03/08 08:55:50;;;;;;;10.35;2.45;;;;;;;1.94;54.91;99070.67;2178441;81;21732;-67
2021/03/08 08:58:53;;;;;;;9.65;1.82;;;;;;;2.29;57.29;99069.01;2178721;81;21712;-69
2021/03/08 09:01:55;;;;;;;8.25;1.72;;;;;;;2.70;52.62;99068.88;2178639;81;21119;-68
2021/03/08 09:04:57;;;;;;;11.60;2.12;;;;;;;2.57;53.59;99074.81;2178645;81;21280;-67
2021/03/08 09:07:59;;;;;;;8.83;2.20;;;;;;;2.95;54.08;99067.83;2178670;81;21273;-68
2021/03/08 09:11:01;;;;;;;9.30;1.90;;;;;;;3.40;55.71;99074.41;2178770;81;21270;-67
2021/03/08 09:14:03;;;;;;;9.75;2.02;;;;;;;3.38;52.80;99077.05;2178569;82;21288;-68
2021/03/08 09:17:05;;;;;;;10.82;2.25;;;;;;;3.11;52.87;99073.45;2178618;81;21737;-69
2021/03/08 09:20:07;;;;;;;7.42;2.00;;;;;;;2.81;55.50;99090.20;2178999;81;21158;-68
2021/03/08 09:23:09;;;;;;;7.03;1.87;;;;;;;2.67;53.12;99087.97;2178737;81;21732;-67
2021/03/08 09:26:11;;;;;;;10.80;1.92;;;;;;;2.56;54.49;99092.09;2178612;81;21292;-67
2021/03/08 09:29:13;;;;;;;5.92;1.72;;;;;;;2.55;55.03;99090.84;2178601;81;21147;-67
2021/03/08 09:32:15;;;;;;;9.63;2.00;;;;;;;2.63;52.66;99097.99;2178899;81;21110;-67
2021/03/08 09:35:17;;;;;;;10.68;2.77;;;;;;;2.65;55.39;99093.61;2178610;81;21126;-67
2021/03/08 09:38:20;;;;;;;;;;;;;;;2.48;52.17;99099.64;2153363;82;21289;-67
2021/03/08 09:41:22;;;;;;;7.90;2.37;;;;;;;2.15;51.76;99104.25;2178634;82;20154;-68
2021/03/08 09:44:25;;;;;;;8.43;2.20;;;;;;;2.06;54.03;99102.72;2178599;81;21621;-68
2021/03/08 09:47:27;;;;;;;10.90;2.50;;;;;;;2.13;54.49;99107.78;2178638;81;21307;-67
2021/03/08 09:50:29;;;;;;;12.58;2.72;;;;;;;2.33;54.85;99112.48;2178622;81;21261;-68
2021/03/08 09:53:31;;;;;;;9.13;2.42;;;;;;;2.56;53.56;99112.81;2178553;82;21303;-67
2021/03/08 09:56:33;;;;;;;10.45;2.70;;;;;;;2.60;51.87;99120.92;2178511;81;21276;-68
2021/03/08 09:59:35;;;;;;;10.25;2.37;;;;;;;2.79;54.10;99107.53;2178784;81;21551;-68
2021/03/08 10:02:37;;;;;;;6.95;2.22;;;;;;;2.77;51.93;99117.06;2178772;81;21269;-69
2021/03/08 10:05:39;;;;;;;8.93;2.27;;;;;;;2.70;51.18;99109.03;2178518;81;21273;-68
2021/03/08 10:08:41;;;;;;;5.75;1.67;;;;;;;2.43;50.01;99126.50;2178572;81;21280;-67
2021/03/08 10:11:43;;;;;;;5.03;1.80;;;;;;;2.50;48.60;99137.99;2178553;81;21288;-68
2021/03/08 10:14:46;;;;;;;8.58;2.47;;;;;;;2.62;50.04;99137.72;2178672;81;21281;-69
2021/03/08 10:17:48;;;;;;;10.23;2.40;;;;;;;2.62;50.04;99137.72;2178645;81;21734;-67
2021/03/08 10:20:50;;;;;;;9.05;2.08;;;;;;;2.72;49.10;99135.77;2178911;81;21138;-67
2021/03/08 10:23:52;;;;;;;8.85;2.30;;;;;;;3.22;50.58;99132.78;2178548;81;21284;-68
2021/03/08 10:26:54;;;;;;;12.25;3.00;;;;;;;3.00;46.86;99131.19;2178698;81;21713;-71
2021/03/08 10:29:56;;;;;;;13.48;2.67;;;;;;;2.64;47.64;99135.94;2178571;81;21718;-68
2021/03/08 10:33:01;;;;;;;9.53;2.62;;;;;;;2.74;50.90;99123.20;2178673;81;21293;-68
2021/03/08 10:36:04;;;;;;;9.40;2.15;;;;;;;3.46;47.82;99126.09;2178362;81;21717;-70
2021/03/08 10:39:06;;;;;;;5.87;1.72;;;;;;;4.23;49.88;99124.36;2178757;81;21166;-68
2021/03/08 10:42:08;;;;;;;5.97;1.65;;;;;;;4.25;45.79;99129.05;2178649;81;21597;-68
2021/03/08 10:45:11;;;;;;;9.75;2.00;;;;;;;3.89;45.83;99129.23;2178103;82;21111;-71
2021/03/08 10:48:13;;;;;;;12.28;2.65;;;;;;;3.47;44.22;99138.18;2178866;81;21265;-68
2021/03/08 10:51:15;;;;;;;10.28;2.60;;;;;;;2.97;46.62;99143.77;2178642;81;21265;-67
2021/03/08 10:54:19;;;;;;;14.25;2.85;;;;;;;3.03;46.73;99134.58;2178692;81;21130;-68
2021/03/08 10:57:24;;;;;;;9.93;2.22;;;;;;;3.46;47.38;99132.16;2178660;82;21301;-67
2021/03/08 11:00:26;;;;;;;9.55;2.08;;;;;;;3.53;44.40;99143.19;2178418;81;21297;-67
2021/03/08 11:03:28;;;;;;;12.88;2.20;;;;;;;3.39;47.25;99131.91;2178725;81;21305;-67
2021/03/08 11:06:30;;;;;;;10.08;2.42;;;;;;;3.51;45.96;99137.20;2178484;81;21293;-67
2021/03/08 11:09:32;;;;;;;9.08;2.15;;;;;;;3.44;44.37;99144.30;2178544;81;21285;-67
2021/03/08 11:12:34;;;;;;;10.60;2.12;;;;;;;3.35;45.74;99137.20;2178500;81;21261;-68
2021/03/08 11:15:36;;;;;;;11.05;2.17;;;;;;;3.22;45.43;99144.45;2178515;81;21123;-68
2021/03/08 11:18:38;;;;;;;11.12;2.50;;;;;;;3.03;46.58;99150.55;2178499;81;21740;-67
2021/03/08 11:21:40;;;;;;;9.78;2.67;;;;;;;2.85;43.78;99148.83;2178487;81;21272;-67
2021/03/08 11:24:42;;;;;;;12.50;2.77;;;;;;;2.62;43.63;99157.15;2178488;81;21099;-67
2021/03/08 11:27:44;;;;;;;10.53;2.47;;;;;;;2.51;45.77;99150.91;2178527;81;21725;-69
2021/03/08 11:30:47;;;;;;;10.20;2.85;;;;;;;2.48;46.09;99144.96;2178963;81;21134;-67
2021/03/08 11:33:49;;;;;;;10.53;2.60;;;;;;;2.51;45.42;99160.42;2178330;82;21301;-68
2021/03/08 11:36:51;;;;;;;10.68;2.70;;;;;;;3.03;46.26;99144.94;2178445;81;21280;-71
2021/03/08 11:39:53;;;;;;;15.65;2.77;;;;;;;3.84;42.97;99129.38;2178476;81;21277;-70
2021/03/08 11:42:55;;;;;;;10.30;2.58;;;;;;;4.11;40.18;99128.18;2178546;81;21717;-68
2021/03/08 11:45:58;;;;;;;7.55;2.27;;;;;;;3.78;42.82;99132.16;2178702;81;21587;-70
2021/03/08 11:49:00;;;;;;;11.70;2.47;;;;;;;3.39;38.81;99129.32;2178556;81;21308;-69
2021/03/08 11:52:02;;;;;;;8.98;2.47;;;;;;;3.18;43.87;99141.09;2178468;81;21300;-67
2021/03/08 11:55:04;;;;;;;12.00;2.40;;;;;;;3.09;43.27;99141.34;2178470;81;21284;-68
2021/03/08 11:58:06;;;;;;;10.60;3.02;;;;;;;3.05;43.89;99144.90;2178458;81;21280;-68
2021/03/08 12:01:08;;;;;;;10.03;2.52;;;;;;;3.05;44.70;99144.45;2178527;81;21336;-68
2021/03/08 12:04:10;;;;;;;10.65;2.85;;;;;;;3.05;44.78;99150.92;2178517;81;21288;-67
2021/03/08 12:07:12;;;;;;;7.75;2.05;;;;;;;3.07;43.93;99148.29;2178439;81;21284;-67
2021/03/08 12:10:14;;;;;;;10.98;2.33;;;;;;;3.05;44.26;99156.56;2178440;81;21288;-69
2021/03/08 12:13:16;;;;;;;12.25;2.58;;;;;;;2.99;42.75;99164.47;2178559;81;21115;-68
2021/03/08 12:16:19;;;;;;;10.03;2.40;;;;;;;2.91;42.61;99152.55;2178413;81;21320;-67
2021/03/08 12:19:21;;;;;;;9.20;2.67;;;;;;;2.99;43.20;99151.09;2178448;81;21284;-68
2021/03/08 12:22:23;;;;;;;8.40;2.60;;;;;;;3.14;43.49;99153.73;2178430;81;21138;-67
2021/03/08 12:25:25;;;;;;;10.03;2.40;;;;;;;3.26;42.18;99153.84;2178630;81;21269;-68
2021/03/08 12:28:27;;;;;;;11.05;2.20;;;;;;;3.20;42.56;99165.69;2150957;82;21138;-68
2021/03/08 12:31:29;;;;;;;8.53;2.45;;;;;;;3.14;42.94;99163.25;2178678;81;21265;-67
2021/03/08 12:34:31;;;;;;;11.15;2.55;;;;;;;3.08;45.20;99156.03;2178606;81;21289;-67
2021/03/08 12:37:33;;;;;;;9.35;2.42;;;;;;;3.14;43.96;99173.16;2178620;81;21308;-67
2021/03/08 12:40:35;;;;;;;8.98;2.50;;;;;;;3.21;44.87;99167.39;2179555;81;21316;-67
2021/03/08 12:43:38;;;;;;;11.03;2.60;;;;;;;3.44;43.68;99168.93;2178655;82;21308;-67
2021/03/08 12:46:40;;;;;;;8.85;2.10;;;;;;;3.56;43.78;99159.99;2178665;81;21257;-67
2021/03/08 12:49:43;;;;;;;13.30;2.52;;;;;;;3.52;43.00;99156.20;2178750;81;21268;-67
2021/03/08 12:52:45;;;;;;;11.75;2.67;;;;;;;3.55;43.26;99160.88;2178536;82;21264;-67
2021/03/08 12:55:48;;;;;;;5.83;2.08;;;;;;;3.64;43.83;99150.23;2178630;81;21281;-71
2021/03/08 12:58:50;;;;;;;8.05;2.35;;;;;;;4.01;40.13;99159.17;2178632;81;21280;-69
2021/03/08 13:01:52;;;;;;;10.72;2.45;;;;;;;4.20;40.88;99152.56;2178659;81;21147;-71
2021/03/08 13:04:54;;;;;;;7.25;2.00;;;;;;;4.47;41.72;99155.23;2178634;81;21127;-72
2021/03/08 13:07:56;;;;;;;7.85;1.95;;;;;;;4.10;40.66;99177.09;2178885;82;21550;-67
2021/03/08 13:10:58;;;;;;;8.10;1.82;;;;;;;3.66;40.59;99169.65;2178646;81;21284;-69
2021/03/08 13:14:00;;;;;;;8.58;2.00;;;;;;;3.47;42.07;99171.89;2178717;81;21265;-68
2021/03/08 13:17:02;;;;;;;12.15;2.30;;;;;;;3.38;40.95;99169.56;2178610;81;21300;-72
2021/03/08 13:20:04;;;;;;;11.25;1.82;;;;;;;3.46;43.05;99202.60;2178872;82;21162;-70
2021/03/08 13:23:06;;;;;;;11.25;2.33;;;;;;;3.25;43.10;99204.02;2178562;81;21284;-71
2021/03/08 13:26:09;;;;;;;9.90;1.60;;;;;;;2.93;43.17;99189.66;2178566;81;21749;-68
2021/03/08 13:29:11;;;;;;;9.45;1.95;;;;;;;2.68;44.24;99212.69;2178719;82;21728;-67
2021/03/08 13:32:13;;;;;;;9.38;1.92;;;;;;;2.55;43.87;99202.20;2178619;81;21245;-69
2021/03/08 13:35:16;;;;;;;11.85;2.50;;;;;;;2.48;42.27;99200.18;2178598;81;21303;-69
2021/03/08 13:38:20;;;;;;;8.08;2.20;;;;;;;2.54;44.99;99210.42;2150732;82;21586;-72
2021/03/08 13:41:22;;;;;;;11.78;2.20;;;;;;;2.64;45.18;99218.81;2178471;82;21281;-68
2021/03/08 13:44:24;;;;;;;10.40;2.55;;;;;;;2.67;43.98;99207.55;2178579;81;21265;-67
2021/03/08 13:47:26;;;;;;;9.58;2.58;;;;;;;2.68;43.10;99207.50;2178597;81;21622;-67
2021/03/08 13:50:29;;;;;;;12.35;2.72;;;;;;;2.66;43.69;99207.13;2178529;81;21308;-68
2021/03/08 13:53:31;;;;;;;14.60;2.80;;;;;;;2.60;45.63;99203.80;2178534;81;21501;-67
2021/03/08 13:56:33;;;;;;;10.75;2.85;;;;;;;2.53;44.90;99211.30;2150773;82;21280;-67
2021/03/08 13:59:35;;;;;;;11.28;2.85;;;;;;;2.45;45.35;99216.24;2178594;81;21288;-67
2021/03/08 14:02:39;;;;;;;13.00;2.65;;;;;;;2.43;46.30;99216.28;2178601;81;21284;-67
2021/03/08 14:05:41;;;;;;;10.63;2.90;;;;;;;2.35;46.00;99224.19;2178434;81;21272;-66
2021/03/08 14:08:43;;;;;;;14.47;2.80;;;;;;;2.35;46.54;99219.01;2178682;81;21143;-67
2021/03/08 14:11:45;;;;;;;11.68;2.80;;;;;;;2.44;45.29;99214.08;2178601;81;21284;-67
2021/03/08 14:14:47;;;;;;;11.45;2.90;;;;;;;2.47;45.29;99215.33;2178508;81;21276;-67